ADDS METAR Data INFO
IDs: Format: Raw Decoded Include TAF

Data at: 0504 UTC 23 May 2017

KRKS 230454Z AUTO 16006KT 10SM BKN060 OVC075 04/02 A3034 RMK AO2 RAB10E20 SLP242 P0000 T00440017
KRKS 230354Z AUTO 15007KT 10SM BKN055 BKN080 BKN090 04/02 A3034 RMK AO2 RAE33 SLP246 P0000 T00440022
KRKS 230254Z AUTO 08013KT 10SM -RA FEW023 BKN031 OVC043 04/01 A3033 RMK AO2 PK WND 08028/0238 SLP250 P0000 60000 T00440011 50013
KRKS 230251Z AUTO 08013KT 10SM -RA FEW023 BKN031 OVC043 04/01 A3033 RMK AO2 PK WND 08028/0238 P0000
KRKS 230234Z AUTO 07019G24KT 6SM -RA FEW020 BKN027 OVC039 04/01 A3033 RMK AO2 P0000 T00440011
KRKS 230154Z AUTO 07015G24KT 10SM -RA BKN043 BKN050 OVC075 06/01 A3031 RMK AO2 PK WND 07027/0103 RAB46 SLP243 P0000 T00610006
KRKS 230054Z AUTO 07019G29KT 10SM FEW075 BKN090 OVC110 07/00 A3028 RMK AO2 PK WND 07029/0037 SLP239 T00670000
KRKS 222354Z AUTO 06024G31KT 10SM BKN095 08/01 A3026 RMK AO2 PK WND 06032/2322 SLP232 60000 T00830006 10183 20083 51022
KRKS 222254Z AUTO 07025G33KT 10SM FEW080 BKN110 09/01 A3025 RMK AO2 PK WND 06039/2203 SLP223 T00890011
KRKS 222154Z AUTO 05024G40KT 10SM FEW070 BKN090 OVC110 08/02 A3022 RMK AO2 PK WND 05043/2138 WSHFT 2119 SLP212 T00830022
KRKS 222139Z AUTO 04034G43KT 10SM BKN095 OVC120 09/03 A3021 RMK AO2 PK WND 05043/2138 WSHFT 2119 T00940028
KRKS 222054Z AUTO 31018G24KT 10SM FEW050 SCT075 BKN095 18/M03 A3018 RMK AO2 PK WND 28027/2021 RAB32E41 SLP172 P0000 60000 T01831028 58020
KRKS 221954Z AUTO 31016G27KT 10SM FEW055 BKN070 OVC095 15/M02 A3021 RMK AO2 PK WND 29027/1947 SLP187 T01501022
KRKS 221854Z AUTO 29017G23KT 10SM CLR 16/M03 A3023 RMK AO2 PK WND 30026/1837 SLP192 T01561028
KRKS 221754Z AUTO 30010KT 10SM SCT055 13/M02 A3025 RMK AO2 SLP205 T01331017 10150 20017 58014
KRKS 221654Z AUTO 28016G22KT 230V300 10SM CLR 12/04 A3027 RMK AO2 SLP212 T01220039
KRKS 221554Z AUTO 27008KT 10SM CLR 10/04 A3029 RMK AO2 SLP220 T01000039
KRKS 221454Z AUTO 26010KT 10SM CLR 08/04 A3030 RMK AO2 SLP231 T00780039 53002
KRKS 221354Z AUTO 00000KT 10SM CLR 06/03 A3030 RMK AO2 SLP236 T00560028
KRKS 221254Z AUTO 24006KT 10SM CLR 03/02 A3029 RMK AO2 SLP228 T00330017
KRKS 221154Z AUTO 30005KT 10SM CLR 02/00 A3029 RMK AO2 SLP235 T00170000 10056 20017 56003
KRKS 221054Z AUTO 25005KT 10SM CLR 03/01 A3029 RMK AO2 SLP228 T00280011
KRKS 220954Z AUTO 23006KT 10SM CLR 03/01 A3030 RMK AO2 SLP227 T00330011
KRKS 220854Z AUTO 21005KT 10SM CLR 03/01 A3031 RMK AO2 SLP229 T00330011 58002
KRKS 220754Z AUTO 35003KT 10SM CLR 05/02 A3031 RMK AO2 SLP234 T00500022
KRKS 220654Z AUTO 00000KT 10SM CLR 05/02 A3031 RMK AO2 SLP230 T00500017 401440022
KRKS 220554Z AUTO 26006KT 10SM CLR 05/02 A3031 RMK AO2 SLP229 60000 T00500022 10128 20050 51007
KRKS 220454Z AUTO 17004KT 10SM FEW100 07/02 A3031 RMK AO2 SLP228 T00670017
KRKS 220354Z AUTO 17005KT 10SM BKN090 08/02 A3030 RMK AO2 RAE12 SLP223 P0000 T00780022
KRKS 220254Z AUTO 04007KT 10SM -RA BKN037 OVC050 07/04 A3029 RMK AO2 LTG DSNT S RAE08B35 TSE0157 SLP226 P0000 60000 T00720039 53013
KRKS 220213Z AUTO 05009KT 10SM FEW013 BKN050 OVC085 07/03 A3029 RMK AO2 RAE08 TSE0157 P0000 T00670033
KRKS 220203Z AUTO 05012KT 9SM VCTS -RA FEW013 BKN070 BKN085 07/03 A3028 RMK AO2 TSE0157 P0000 T00670033
KRKS 220154Z AUTO 06014KT 10SM -TSRA SCT013 BKN042 BKN070 07/03 A3028 RMK AO2 PK WND 04028/0133 RAB31 TSB16 SLP228 P0000 T00720028
KRKS 220122Z AUTO 04015G21KT 10SM TS SCT043 SCT065 BKN085 12/02 A3025 RMK AO2 TSB16 T01170017
KRKS 220054Z AUTO 07005KT 10SM SCT095 12/02 A3025 RMK AO2 SLP211 T01170017
KRKS 212354Z AUTO 08006KT 10SM BKN075 BKN090 12/02 A3024 RMK AO2 SLP213 60000 T01170022 10144 20083 53004
KRKS 212254Z AUTO 09011G19KT 10SM BKN032 BKN041 13/04 A3023 RMK AO2 LTG DSNT W SLP206 T01280039
KRKS 212154Z AUTO 07013G19KT 10SM FEW075 13/03 A3022 RMK AO2 LTG DSNT N SLP199 T01280033
KRKS 212054Z AUTO 03008KT 10SM FEW070 13/02 A3023 RMK AO2 LTG DSNT N SLP199 60000 T01330022 56000
KRKS 211954Z AUTO 07010KT 10SM FEW046 SCT065 BKN100 11/04 A3023 RMK AO2 WSHFT 1856 RAB04E40 TSB11E30 SLP202 P0000 T01060039
KRKS 211947Z AUTO 06010KT 10SM SCT046 SCT070 BKN100 11/04 A3024 RMK AO2 WSHFT 1856 RAB04E40 TSB11E30 P0000 T01060044
KRKS 211936Z AUTO 03009G17KT 10SM VCTS -RA BKN046 BKN070 OVC100 09/03 A3024 RMK AO2 WSHFT 1856 RAB04 TSB11E30 P0000 T00940028
KRKS 211911Z AUTO 33014G24KT 10SM -TSRA BKN048 OVC065 09/02 A3024 RMK AO2 WSHFT 1856 RAB04 TSB11 P0000 T00890022
KRKS 211854Z AUTO 27018KT 10SM BKN048 BKN065 12/01 A3023 RMK AO2 SLP201 T01170006
KRKS 211754Z AUTO VRB03KT 10SM SCT036 BKN060 BKN080 12/02 A3023 RMK AO2 LTG DSNT N SLP196 T01220022 10139 20028 58002


Page loaded:  05:04 UTC  |   10:04 PM Pacific  |   11:04 PM Mountain  |   12:04 AM Central  |   01:04 AM Eastern

 

ADVISORIES

FORECASTS

FORECASTS

OBSERVATIONS

USER TOOLS

ABOUT US